Flight Track Log - Related Links

Times and Time Zones

All times are in EDT time to prevent confusion due to time zone crossing. See the SLI420 flight status page for this flight to view local times or setup timezone preferences in your user account.

Time Position Orientation Groundspeed Altitude Reporting Facility
EDT Latitude Longitude Course Direction KTS MPH feet Rate Location/Type
Mon 09:45:00 AM 19.7946 -97.0995 79° East  Level Estimated
Mon 09:46:00 AM 19.8129 -96.9954 79° East  Level Estimated
Mon 09:47:00 AM 19.8311 -96.8913 79° East  Level Estimated
Mon 09:48:00 AM 19.8492 -96.7872 79° East  Level Estimated
Mon 09:49:00 AM 19.8673 -96.6831 80° East  Level Estimated
Mon 09:50:00 AM 19.8853 -96.5789 80° East  Level Estimated
Mon 09:51:00 AM 19.9033 -96.4748 80° East  Level Estimated
Mon 09:52:00 AM 19.9212 -96.3706 80° East  Level Estimated
Mon 09:53:00 AM 19.9390 -96.2663 80° East  Level Estimated
Mon 09:54:00 AM 19.9568 -96.1621 80° East  Level Estimated
Mon 09:55:00 AM 19.9745 -96.0578 80° East  Level Estimated
Mon 09:56:00 AM 19.9922 -95.9535 80° East  Level Estimated
Mon 09:57:00 AM 20.0098 -95.8492 80° East  Level Estimated
Mon 09:58:00 AM 20.0273 -95.7448 80° East  Level Estimated
Mon 09:59:00 AM 20.0448 -95.6404 80° East  Level Estimated
Mon 10:00:00 AM 20.0622 -95.5361 80° East  Level Estimated
Mon 10:01:00 AM 20.0795 -95.4316 80° East  Level Estimated
Mon 10:02:00 AM 20.0968 -95.3272 80° East  Level Estimated
Mon 10:03:00 AM 20.1140 -95.2227 80° East  Level Estimated
Mon 10:04:00 AM 20.1312 -95.1183 80° East  Level Estimated
Mon 10:05:00 AM 20.1483 -95.0137 80° East  Level Estimated
Mon 10:06:00 AM 20.1654 -94.9092 80° East  Level Estimated
Mon 10:07:00 AM 20.1823 -94.8047 80° East  Level Estimated
Mon 10:08:00 AM 20.1993 -94.7001 80° East  Level Estimated
Mon 10:09:00 AM 20.2161 -94.5955 80° East  Level Estimated
Mon 10:10:00 AM 20.2329 -94.4909 80° East  Level Estimated
Mon 10:11:00 AM 20.2496 -94.3862 80° East  Level Estimated
Mon 10:12:00 AM 20.2663 -94.2816 80° East  Level Estimated
Mon 10:13:00 AM 20.2829 -94.1769 80° East  Level Estimated
Mon 10:14:00 AM 20.2995 -94.0722 80° East  Level Estimated
Mon 10:15:00 AM 20.3160 -93.9674 80° East  Level Estimated
Mon 10:16:00 AM 20.3324 -93.8627 80° East  Level Estimated
Mon 10:17:00 AM 20.3487 -93.7579 81° East  Level Estimated
Mon 10:18:00 AM 20.3650 -93.6531 81° East  Level Estimated
Mon 10:19:00 AM 20.3813 -93.5483 81° East  Level Estimated
Mon 10:20:00 AM 20.3974 -93.4434 81° East  Level Estimated
Mon 10:21:00 AM 20.4135 -93.3386 81° East  Level Estimated
Mon 10:22:00 AM 20.4296 -93.2337 81° East  Level Estimated
Mon 10:23:00 AM 20.4456 -93.1288 81° East  Level Estimated
Mon 10:24:00 AM 20.4615 -93.0238 81° East  Level Estimated
Mon 10:25:00 AM 20.4774 -92.9189 81° East  Level Estimated
Mon 10:26:00 AM 20.4931 -92.8139 81° East  Level Estimated
Mon 10:27:00 AM 20.5089 -92.7089 81° East  Level Estimated
Mon 10:28:00 AM 20.5245 -92.6039 81° East  Level Estimated
Mon 10:29:00 AM 20.5401 -92.4988 81° East  Level Estimated
Mon 10:30:00 AM 20.5557 -92.3938 81° East  Level Estimated
Mon 10:31:00 AM 20.5712 -92.2887 81° East  Level Estimated
Mon 10:32:00 AM 20.5866 -92.1836 81° East  Level Estimated
Mon 10:33:00 AM 20.6019 -92.0785 81° East  Level Estimated
Mon 10:34:00 AM 20.6172 -91.9733 81° East  Level Estimated
Mon 10:35:00 AM 20.6324 -91.8681 81° East  Level Estimated
Mon 10:36:00 AM 20.6476 -91.7630 81° East  Level Estimated
Mon 10:37:00 AM 20.6627 -91.6578 81° East  Level Estimated
Mon 10:38:00 AM 20.6777 -91.5525 81° East  Level Estimated
Mon 10:39:00 AM 20.6927 -91.4473 81° East  Level Estimated
Mon 10:40:00 AM 20.7076 -91.3420 81° East  Level Estimated
Mon 10:41:00 AM 20.7224 -91.2367 81° East  Level Estimated
Mon 10:42:00 AM 20.7372 -91.1314 81° East  Level Estimated
Mon 10:43:00 AM 20.7519 -91.0261 81° East  Level Estimated
Mon 10:44:00 AM 20.7666 -90.9207 82° East  Level Estimated
Mon 10:45:00 AM 20.7812 -90.8154 82° East  Level Estimated
Mon 10:46:00 AM 20.7957 -90.7100 82° East  Level Estimated
Mon 10:47:00 AM 20.8102 -90.6046 82° East  Level Estimated
Mon 10:48:00 AM 20.8245 -90.4991 82° East  Level Estimated
Mon 10:49:00 AM 20.8389 -90.3936 82° East  Level Estimated
Mon 10:50:00 AM 20.8531 -90.2882 82° East  Level Estimated
Mon 10:51:00 AM 20.8673 -90.1827 82° East  Level Estimated
Mon 10:52:00 AM 20.8815 -90.0771 82° East  Level Estimated
Mon 10:53:00 AM 20.8955 -89.9716 82° East  Level Estimated
Mon 10:54:00 AM 20.9095 -89.8661 82° East  Level Estimated
Mon 10:55:00 AM 20.9235 -89.7605 82° East  Level Estimated
Mon 10:56:00 AM 20.9370 -89.6577 82° East  Level Estimated
Mon 10:57:00 AM 20.9370 -89.6577 298° West  Level Estimated
Mon 10:58:00 AM 20.9370 -89.6577 298° West  Level Estimated
Mon 10:59:00 AM 20.9370 -89.6577 298° West  Level Estimated
Mon 11:00:00 AM 20.9370 -89.6577 298° West  Level Estimated
Mon 11:01:00 AM 20.9370 -89.6577 298° West  Level Estimated
Mon 11:02:00 AM 20.9370 -89.6577 298° West  Level Estimated
Mon 11:03:00 AM 20.9370 -89.6577 298° West  Level Estimated
Mon 11:04:00 AM 20.9370 -89.6577 298° West  Level Estimated
Mon 11:05:00 AM 20.9370 -89.6577 298° West  Level Estimated
Mon 11:06:00 AM 20.9370 -89.6577 298° West  Level Estimated
Mon 11:07:00 AM 20.9370 -89.6577 298° West  Level Estimated
Mon 11:08:00 AM 20.9370 -89.6577 298° West  Level Estimated
Mon 11:09:00 AM 20.9370 -89.6577 298° West  Level Estimated
Mon 11:10:00 AM 20.9370 -89.6577 298° West  Level Estimated
Mon 11:11:00 AM 20.9370 -89.6577 298° West  Level Estimated
Mon 11:12:00 AM 20.9370 -89.6577 298° West  Level Estimated

Login

Don't have an account? Register now (free) for customized features, flight alerts, and more!